sensor_id;sensor_type;location;lat;lon;timestamp;P1;durP1;ratioP1;P2;durP2;ratioP2
43226;SDS011;28839;52.404;9.808;2023-05-14T00:06:18;8.50;;;7.03;;
43226;SDS011;28839;52.404;9.808;2023-05-14T00:13:12;8.43;;;7.53;;
43226;SDS011;28839;52.404;9.808;2023-05-14T00:20:08;10.15;;;8.35;;
43226;SDS011;28839;52.404;9.808;2023-05-14T00:27:03;9.77;;;8.15;;
43226;SDS011;28839;52.404;9.808;2023-05-14T00:33:57;15.77;;;8.57;;
43226;SDS011;28839;52.404;9.808;2023-05-14T00:40:52;8.60;;;7.70;;
43226;SDS011;28839;52.404;9.808;2023-05-14T00:47:46;10.70;;;9.13;;
43226;SDS011;28839;52.404;9.808;2023-05-14T00:54:41;13.57;;;8.23;;
43226;SDS011;28839;52.404;9.808;2023-05-14T01:01:36;13.03;;;8.63;;
43226;SDS011;28839;52.404;9.808;2023-05-14T01:08:31;9.48;;;8.57;;
43226;SDS011;28839;52.404;9.808;2023-05-14T01:15:33;11.55;;;7.97;;
43226;SDS011;28839;52.404;9.808;2023-05-14T01:22:30;9.82;;;8.82;;
43226;SDS011;28839;52.404;9.808;2023-05-14T01:29:24;9.50;;;8.52;;
43226;SDS011;28839;52.404;9.808;2023-05-14T01:36:21;13.88;;;9.23;;
43226;SDS011;28839;52.404;9.808;2023-05-14T01:43:16;11.82;;;9.27;;
43226;SDS011;28839;52.404;9.808;2023-05-14T01:50:11;11.40;;;8.38;;
43226;SDS011;28839;52.404;9.808;2023-05-14T01:57:05;11.65;;;9.93;;
43226;SDS011;28839;52.404;9.808;2023-05-14T02:04:00;9.68;;;8.52;;
43226;SDS011;28839;52.404;9.808;2023-05-14T02:10:54;9.77;;;8.30;;
43226;SDS011;28839;52.404;9.808;2023-05-14T02:17:48;10.25;;;8.73;;
43226;SDS011;28839;52.404;9.808;2023-05-14T02:24:43;12.20;;;9.43;;
43226;SDS011;28839;52.404;9.808;2023-05-14T02:31:37;10.00;;;9.00;;
43226;SDS011;28839;52.404;9.808;2023-05-14T02:38:31;12.13;;;9.50;;
43226;SDS011;28839;52.404;9.808;2023-05-14T02:45:26;9.35;;;8.45;;
43226;SDS011;28839;52.404;9.808;2023-05-14T02:52:20;9.02;;;8.10;;
43226;SDS011;28839;52.404;9.808;2023-05-14T02:59:14;11.10;;;8.50;;
43226;SDS011;28839;52.404;9.808;2023-05-14T03:06:09;10.52;;;9.52;;
43226;SDS011;28839;52.404;9.808;2023-05-14T03:13:03;10.10;;;9.10;;
43226;SDS011;28839;52.404;9.808;2023-05-14T03:19:57;10.82;;;9.40;;
43226;SDS011;28839;52.404;9.808;2023-05-14T03:26:52;12.20;;;9.13;;
43226;SDS011;28839;52.404;9.808;2023-05-14T03:33:45;10.35;;;8.88;;
43226;SDS011;28839;52.404;9.808;2023-05-14T03:40:39;11.05;;;9.57;;
43226;SDS011;28839;52.404;9.808;2023-05-14T03:54:37;10.82;;;8.93;;
43226;SDS011;28839;52.404;9.808;2023-05-14T04:01:32;10.30;;;9.23;;
43226;SDS011;28839;52.404;9.808;2023-05-14T04:08:26;9.93;;;8.68;;
43226;SDS011;28839;52.404;9.808;2023-05-14T04:15:21;10.52;;;9.20;;
43226;SDS011;28839;52.404;9.808;2023-05-14T04:22:15;10.02;;;9.02;;
43226;SDS011;28839;52.404;9.808;2023-05-14T04:29:09;10.20;;;9.20;;
43226;SDS011;28839;52.404;9.808;2023-05-14T04:36:04;10.10;;;8.88;;
43226;SDS011;28839;52.404;9.808;2023-05-14T04:42:58;10.07;;;8.02;;
43226;SDS011;28839;52.404;9.808;2023-05-14T04:49:52;9.82;;;8.82;;
43226;SDS011;28839;52.404;9.808;2023-05-14T04:56:47;8.73;;;7.93;;
43226;SDS011;28839;52.404;9.808;2023-05-14T05:03:41;10.07;;;8.40;;
43226;SDS011;28839;52.404;9.808;2023-05-14T05:10:35;9.57;;;8.57;;
43226;SDS011;28839;52.404;9.808;2023-05-14T05:17:30;8.50;;;7.57;;
43226;SDS011;28839;52.404;9.808;2023-05-14T05:24:24;9.55;;;7.80;;
43226;SDS011;28839;52.404;9.808;2023-05-14T05:31:18;7.90;;;7.10;;
43226;SDS011;28839;52.404;9.808;2023-05-14T05:38:16;7.93;;;7.10;;
43226;SDS011;28839;52.404;9.808;2023-05-14T05:45:10;8.68;;;7.18;;
43226;SDS011;28839;52.404;9.808;2023-05-14T05:52:04;7.57;;;6.90;;
43226;SDS011;28839;52.404;9.808;2023-05-14T05:58:59;7.50;;;6.80;;
43226;SDS011;28839;52.404;9.808;2023-05-14T06:05:55;8.25;;;6.72;;
43226;SDS011;28839;52.404;9.808;2023-05-14T06:12:48;7.45;;;6.68;;
43226;SDS011;28839;52.404;9.808;2023-05-14T06:19:43;7.47;;;6.80;;
43226;SDS011;28839;52.404;9.808;2023-05-14T06:26:37;7.15;;;6.45;;
43226;SDS011;28839;52.404;9.808;2023-05-14T06:33:31;10.60;;;7.70;;
43226;SDS011;28839;52.404;9.808;2023-05-14T06:40:26;8.57;;;6.80;;
43226;SDS011;28839;52.404;9.808;2023-05-14T06:47:20;7.65;;;6.25;;
43226;SDS011;28839;52.404;9.808;2023-05-14T06:54:14;7.53;;;6.60;;
43226;SDS011;28839;52.404;9.808;2023-05-14T07:01:09;6.63;;;6.03;;
43226;SDS011;28839;52.404;9.808;2023-05-14T07:08:03;8.50;;;5.68;;
43226;SDS011;28839;52.404;9.808;2023-05-14T07:14:57;6.57;;;5.25;;
43226;SDS011;28839;52.404;9.808;2023-05-14T07:21:52;5.45;;;4.97;;
43226;SDS011;28839;52.404;9.808;2023-05-14T07:28:46;7.90;;;5.65;;
43226;SDS011;28839;52.404;9.808;2023-05-14T07:35:40;5.75;;;5.25;;
43226;SDS011;28839;52.404;9.808;2023-05-14T07:42:35;8.20;;;5.75;;
43226;SDS011;28839;52.404;9.808;2023-05-14T07:49:32;6.68;;;5.18;;
43226;SDS011;28839;52.404;9.808;2023-05-14T07:56:25;6.50;;;5.22;;
43226;SDS011;28839;52.404;9.808;2023-05-14T08:03:21;7.40;;;4.90;;
43226;SDS011;28839;52.404;9.808;2023-05-14T08:10:14;5.18;;;4.00;;
43226;SDS011;28839;52.404;9.808;2023-05-14T08:17:08;4.57;;;4.18;;
43226;SDS011;28839;52.404;9.808;2023-05-14T08:24:03;4.50;;;4.05;;
43226;SDS011;28839;52.404;9.808;2023-05-14T08:30:58;4.07;;;3.50;;
43226;SDS011;28839;52.404;9.808;2023-05-14T08:37:51;4.57;;;3.75;;
43226;SDS011;28839;52.404;9.808;2023-05-14T08:44:47;5.37;;;3.65;;
43226;SDS011;28839;52.404;9.808;2023-05-14T08:51:45;3.78;;;3.37;;
43226;SDS011;28839;52.404;9.808;2023-05-14T08:58:40;5.20;;;3.47;;
43226;SDS011;28839;52.404;9.808;2023-05-14T09:05:35;7.57;;;4.10;;
43226;SDS011;28839;52.404;9.808;2023-05-14T09:12:29;4.55;;;3.90;;
43226;SDS011;28839;52.404;9.808;2023-05-14T09:19:23;7.53;;;4.07;;
43226;SDS011;28839;52.404;9.808;2023-05-14T09:26:21;4.97;;;4.25;;
43226;SDS011;28839;52.404;9.808;2023-05-14T09:33:24;4.43;;;3.58;;
43226;SDS011;28839;52.404;9.808;2023-05-14T09:40:19;4.70;;;3.47;;
43226;SDS011;28839;52.404;9.808;2023-05-14T09:47:16;5.43;;;4.00;;
43226;SDS011;28839;52.404;9.808;2023-05-14T10:01:12;5.50;;;3.15;;
43226;SDS011;28839;52.404;9.808;2023-05-14T10:08:13;4.30;;;3.40;;
43226;SDS011;28839;52.404;9.808;2023-05-14T10:15:15;3.87;;;3.12;;
43226;SDS011;28839;52.404;9.808;2023-05-14T10:22:12;3.90;;;3.47;;
43226;SDS011;28839;52.404;9.808;2023-05-14T10:29:10;4.78;;;3.53;;
43226;SDS011;28839;52.404;9.808;2023-05-14T10:36:05;6.07;;;4.07;;
43226;SDS011;28839;52.404;9.808;2023-05-14T10:42:59;7.30;;;3.97;;
43226;SDS011;28839;52.404;9.808;2023-05-14T10:49:56;7.22;;;4.20;;
43226;SDS011;28839;52.404;9.808;2023-05-14T10:56:51;6.45;;;4.57;;
43226;SDS011;28839;52.404;9.808;2023-05-14T11:03:45;6.72;;;4.37;;
43226;SDS011;28839;52.404;9.808;2023-05-14T11:17:35;7.57;;;4.53;;
43226;SDS011;28839;52.404;9.808;2023-05-14T11:24:30;13.73;;;3.87;;
43226;SDS011;28839;52.404;9.808;2023-05-14T11:31:25;4.18;;;3.72;;
43226;SDS011;28839;52.404;9.808;2023-05-14T11:38:19;5.57;;;4.12;;
43226;SDS011;28839;52.404;9.808;2023-05-14T11:52:17;4.90;;;4.15;;
43226;SDS011;28839;52.404;9.808;2023-05-14T11:59:12;5.55;;;4.43;;
43226;SDS011;28839;52.404;9.808;2023-05-14T12:06:06;4.30;;;3.90;;
43226;SDS011;28839;52.404;9.808;2023-05-14T12:19:59;4.10;;;3.70;;
43226;SDS011;28839;52.404;9.808;2023-05-14T12:26:52;7.93;;;5.32;;
43226;SDS011;28839;52.404;9.808;2023-05-14T12:33:48;9.57;;;4.78;;
43226;SDS011;28839;52.404;9.808;2023-05-14T12:40:41;6.82;;;3.05;;
43226;SDS011;28839;52.404;9.808;2023-05-14T12:47:35;3.25;;;2.58;;
43226;SDS011;28839;52.404;9.808;2023-05-14T12:54:30;4.62;;;3.03;;
43226;SDS011;28839;52.404;9.808;2023-05-14T13:01:24;4.75;;;3.25;;
43226;SDS011;28839;52.404;9.808;2023-05-14T13:08:18;3.67;;;3.20;;
43226;SDS011;28839;52.404;9.808;2023-05-14T13:15:14;3.45;;;3.10;;
43226;SDS011;28839;52.404;9.808;2023-05-14T13:22:08;4.32;;;3.53;;
43226;SDS011;28839;52.404;9.808;2023-05-14T13:29:02;7.57;;;4.37;;
43226;SDS011;28839;52.404;9.808;2023-05-14T13:35:57;10.20;;;3.50;;
43226;SDS011;28839;52.404;9.808;2023-05-14T13:42:51;4.05;;;3.30;;
43226;SDS011;28839;52.404;9.808;2023-05-14T13:49:44;4.68;;;3.10;;
43226;SDS011;28839;52.404;9.808;2023-05-14T13:56:39;7.45;;;3.58;;
43226;SDS011;28839;52.404;9.808;2023-05-14T14:03:33;4.15;;;3.65;;
43226;SDS011;28839;52.404;9.808;2023-05-14T14:10:27;5.87;;;3.17;;
43226;SDS011;28839;52.404;9.808;2023-05-14T14:17:22;6.00;;;3.12;;
43226;SDS011;28839;52.404;9.808;2023-05-14T14:24:16;4.05;;;2.87;;
43226;SDS011;28839;52.404;9.808;2023-05-14T14:31:10;4.97;;;3.20;;
43226;SDS011;28839;52.404;9.808;2023-05-14T14:38:06;4.87;;;3.62;;
43226;SDS011;28839;52.404;9.808;2023-05-14T14:45:00;3.62;;;2.92;;
43226;SDS011;28839;52.404;9.808;2023-05-14T14:51:53;7.85;;;3.47;;
43226;SDS011;28839;52.404;9.808;2023-05-14T14:58:48;4.93;;;2.92;;
43226;SDS011;28839;52.404;9.808;2023-05-14T15:05:42;4.03;;;3.45;;
43226;SDS011;28839;52.404;9.808;2023-05-14T15:12:36;3.55;;;3.03;;
43226;SDS011;28839;52.404;9.808;2023-05-14T15:19:31;8.48;;;3.62;;
43226;SDS011;28839;52.404;9.808;2023-05-14T15:26:25;4.37;;;3.62;;
43226;SDS011;28839;52.404;9.808;2023-05-14T15:33:19;8.68;;;3.58;;
43226;SDS011;28839;52.404;9.808;2023-05-14T15:40:14;5.80;;;3.45;;
43226;SDS011;28839;52.404;9.808;2023-05-14T15:47:08;5.05;;;3.92;;
43226;SDS011;28839;52.404;9.808;2023-05-14T15:54:02;6.18;;;2.95;;
43226;SDS011;28839;52.404;9.808;2023-05-14T16:50:07;4.93;;;3.35;;
43226;SDS011;28839;52.404;9.808;2023-05-14T16:57:01;7.57;;;3.47;;
43226;SDS011;28839;52.404;9.808;2023-05-14T17:03:55;3.83;;;3.15;;
43226;SDS011;28839;52.404;9.808;2023-05-14T17:10:50;7.28;;;3.45;;
43226;SDS011;28839;52.404;9.808;2023-05-14T17:17:44;9.23;;;4.00;;
43226;SDS011;28839;52.404;9.808;2023-05-14T17:24:38;4.32;;;3.65;;
43226;SDS011;28839;52.404;9.808;2023-05-14T17:31:34;4.32;;;3.75;;
43226;SDS011;28839;52.404;9.808;2023-05-14T17:38:28;6.20;;;3.80;;
43226;SDS011;28839;52.404;9.808;2023-05-14T17:45:22;8.82;;;4.07;;
43226;SDS011;28839;52.404;9.808;2023-05-14T17:52:17;9.70;;;4.80;;
43226;SDS011;28839;52.404;9.808;2023-05-14T17:59:11;12.35;;;7.25;;
43226;SDS011;28839;52.404;9.808;2023-05-14T18:06:05;5.45;;;4.32;;
43226;SDS011;28839;52.404;9.808;2023-05-14T18:13:00;4.37;;;3.80;;
43226;SDS011;28839;52.404;9.808;2023-05-14T18:19:54;6.37;;;4.20;;
43226;SDS011;28839;52.404;9.808;2023-05-14T18:26:48;8.52;;;6.10;;
43226;SDS011;28839;52.404;9.808;2023-05-14T18:33:43;6.87;;;3.70;;
43226;SDS011;28839;52.404;9.808;2023-05-14T18:40:37;4.37;;;3.80;;
43226;SDS011;28839;52.404;9.808;2023-05-14T18:47:30;6.85;;;4.60;;
43226;SDS011;28839;52.404;9.808;2023-05-14T18:54:26;5.20;;;4.70;;
43226;SDS011;28839;52.404;9.808;2023-05-14T19:01:20;6.50;;;4.50;;
43226;SDS011;28839;52.404;9.808;2023-05-14T19:08:16;7.82;;;4.97;;
43226;SDS011;28839;52.404;9.808;2023-05-14T19:15:11;10.03;;;5.03;;
43226;SDS011;28839;52.404;9.808;2023-05-14T19:22:05;10.18;;;5.60;;
43226;SDS011;28839;52.404;9.808;2023-05-14T19:28:59;9.07;;;6.60;;
43226;SDS011;28839;52.404;9.808;2023-05-14T19:35:54;6.97;;;6.20;;
43226;SDS011;28839;52.404;9.808;2023-05-14T19:42:48;6.82;;;5.47;;
43226;SDS011;28839;52.404;9.808;2023-05-14T19:49:42;9.03;;;6.50;;
43226;SDS011;28839;52.404;9.808;2023-05-14T19:56:37;9.80;;;5.50;;
43226;SDS011;28839;52.404;9.808;2023-05-14T20:03:31;10.82;;;5.82;;
43226;SDS011;28839;52.404;9.808;2023-05-14T20:17:20;7.60;;;6.68;;
43226;SDS011;28839;52.404;9.808;2023-05-14T20:24:15;7.18;;;5.90;;
43226;SDS011;28839;52.404;9.808;2023-05-14T20:31:09;7.57;;;6.73;;
43226;SDS011;28839;52.404;9.808;2023-05-14T20:38:04;8.33;;;7.23;;
43226;SDS011;28839;52.404;9.808;2023-05-14T20:44:58;9.50;;;6.93;;
43226;SDS011;28839;52.404;9.808;2023-05-14T20:51:52;8.27;;;7.43;;
43226;SDS011;28839;52.404;9.808;2023-05-14T20:58:47;13.43;;;7.50;;
43226;SDS011;28839;52.404;9.808;2023-05-14T21:05:41;9.80;;;7.00;;
43226;SDS011;28839;52.404;9.808;2023-05-14T21:12:35;8.87;;;7.23;;
43226;SDS011;28839;52.404;9.808;2023-05-14T21:19:30;9.63;;;7.67;;
43226;SDS011;28839;52.404;9.808;2023-05-14T21:26:24;11.93;;;6.68;;
43226;SDS011;28839;52.404;9.808;2023-05-14T21:33:18;11.17;;;7.90;;
43226;SDS011;28839;52.404;9.808;2023-05-14T21:40:13;9.93;;;8.00;;
43226;SDS011;28839;52.404;9.808;2023-05-14T21:47:07;9.23;;;8.10;;
43226;SDS011;28839;52.404;9.808;2023-05-14T21:54:01;25.63;;;17.10;;
43226;SDS011;28839;52.404;9.808;2023-05-14T22:00:56;20.30;;;13.10;;
43226;SDS011;28839;52.404;9.808;2023-05-14T22:07:50;15.82;;;11.68;;
43226;SDS011;28839;52.404;9.808;2023-05-14T22:14:44;11.67;;;8.67;;
43226;SDS011;28839;52.404;9.808;2023-05-14T22:21:39;11.00;;;9.85;;
43226;SDS011;28839;52.404;9.808;2023-05-14T22:28:33;9.70;;;8.48;;
43226;SDS011;28839;52.404;9.808;2023-05-14T22:35:30;13.25;;;8.93;;
43226;SDS011;28839;52.404;9.808;2023-05-14T22:42:26;9.87;;;8.40;;
43226;SDS011;28839;52.404;9.808;2023-05-14T22:49:19;10.80;;;8.20;;
43226;SDS011;28839;52.404;9.808;2023-05-14T22:56:13;10.30;;;9.10;;
43226;SDS011;28839;52.404;9.808;2023-05-14T23:03:08;10.48;;;8.63;;
43226;SDS011;28839;52.404;9.808;2023-05-14T23:10:02;13.13;;;9.70;;
43226;SDS011;28839;52.404;9.808;2023-05-14T23:16:57;11.63;;;8.85;;
43226;SDS011;28839;52.404;9.808;2023-05-14T23:23:52;13.30;;;10.20;;
43226;SDS011;28839;52.404;9.808;2023-05-14T23:30:46;11.95;;;10.75;;
43226;SDS011;28839;52.404;9.808;2023-05-14T23:37:40;11.35;;;10.07;;
43226;SDS011;28839;52.404;9.808;2023-05-14T23:44:39;14.85;;;11.10;;
43226;SDS011;28839;52.404;9.808;2023-05-14T23:51:33;13.57;;;10.90;;
43226;SDS011;28839;52.404;9.808;2023-05-14T23:58:27;12.75;;;10.80;;
